Time;durP1;ratioP1;P1;durP2;ratioP2;P2;SDS_P1;SDS_P2;PMS_P1;PMS_P2;Temp;Humidity;BMP_temperature;BMP_pressure;BME280_temperature;BME280_humidity;BME280_pressure;Samples;Min_cycle;Max_cycle;Signal;HPM_P1;HPM_P2
2020/12/04 00:01:08;;;;;;;6.45;2.50;;;;;;;;;;4995690;28;20062;-61
2020/12/04 00:03:34;;;;;;;4.60;2.08;;;;;;;;;;4994591;28;20052;-61
2020/12/04 00:06:00;;;;;;;6.63;2.47;;;;;;;;;;4994772;28;20049;-58
2020/12/04 00:08:27;;;;;;;5.85;2.55;;;;;;;;;;4995571;28;20042;-57
2020/12/04 00:10:53;;;;;;;6.13;2.53;;;;;;;;;;4997308;28;20060;-56
2020/12/04 00:13:19;;;;;;;6.55;2.60;;;;;;;;;;4994445;28;20121;-60
2020/12/04 00:15:45;;;;;;;6.95;2.70;;;;;;;;;;4993535;28;20137;-54
2020/12/04 00:18:11;;;;;;;6.13;2.55;;;;;;;;;;4991647;28;20064;-58
2020/12/04 00:20:38;;;;;;;6.22;2.80;;;;;;;;;;5012348;28;20052;-59
2020/12/04 00:23:04;;;;;;;6.03;2.38;;;;;;;;;;4995149;28;20089;-58
2020/12/04 00:25:31;;;;;;;5.40;2.17;;;;;;;;;;4993960;28;20064;-55
2020/12/04 00:27:57;;;;;;;8.30;2.60;;;;;;;;;;4993230;28;20050;-57
2020/12/04 00:30:24;;;;;;;5.97;2.65;;;;;;;;;;4994963;28;20127;-55
2020/12/04 00:32:50;;;;;;;7.38;2.50;;;;;;;;;;5011722;28;20061;-56
2020/12/04 00:35:16;;;;;;;7.00;2.92;;;;;;;;;;5007433;28;20034;-58
2020/12/04 00:37:43;;;;;;;8.27;2.90;;;;;;;;;;5013808;28;20070;-56
2020/12/04 00:40:09;;;;;;;8.50;2.67;;;;;;;;;;4996754;28;20062;-58
2020/12/04 00:42:36;;;;;;;7.70;2.83;;;;;;;;;;5016132;28;20060;-59
2020/12/04 00:45:02;;;;;;;7.78;2.80;;;;;;;;;;4999062;28;20082;-57
2020/12/04 00:47:28;;;;;;;3.88;1.58;;;;;;;;;;5012308;28;20042;-52
2020/12/04 00:49:56;;;;;;;5.78;2.45;;;;;;;;;;4980608;28;20058;-56
2020/12/04 00:52:22;;;;;;;7.30;2.55;;;;;;;;;;5013488;28;20060;-55
2020/12/04 00:54:50;;;;;;;7.82;2.83;;;;;;;;;;5017651;28;20050;-55
2020/12/04 00:57:16;;;;;;;3.50;1.52;;;;;;;;;;5010716;28;20079;-56
2020/12/04 00:59:43;;;;;;;5.40;2.22;;;;;;;;;;5018591;28;20057;-57
2020/12/04 01:02:09;;;;;;;4.35;1.52;;;;;;;;;;5016263;28;20041;-57
2020/12/04 01:04:35;;;;;;;6.03;2.35;;;;;;;;;;5002877;28;20042;-58
2020/12/04 01:07:04;;;;;;;7.43;2.85;;;;;;;;;;5019909;28;20037;-56
2020/12/04 01:09:30;;;;;;;5.63;2.10;;;;;;;;;;5018245;28;20030;-56
2020/12/04 01:11:56;;;;;;;8.77;2.95;;;;;;;;;;5006887;28;20038;-59
2020/12/04 01:14:24;;;;;;;7.47;3.03;;;;;;;;;;5023768;28;20072;-60
2020/12/04 01:16:50;;;;;;;6.68;2.28;;;;;;;;;;5019781;28;20081;-61
2020/12/04 01:19:17;;;;;;;5.75;2.40;;;;;;;;;;5022972;28;20112;-58
2020/12/04 01:21:43;;;;;;;6.70;2.55;;;;;;;;;;5017711;28;20050;-59
2020/12/04 01:24:09;;;;;;;6.05;2.17;;;;;;;;;;5004688;28;20054;-59
2020/12/04 01:26:39;;;;;;;6.45;2.50;;;;;;;;;;5003139;28;20066;-61
2020/12/04 01:29:05;;;;;;;6.68;2.63;;;;;;;;;;5019679;28;20043;-60
2020/12/04 01:31:32;;;;;;;6.85;2.70;;;;;;;;;;5041134;28;20062;-58
2020/12/04 01:34:00;;;;;;;5.88;2.53;;;;;;;;;;5019133;28;20066;-57
2020/12/04 01:36:26;;;;;;;8.13;3.35;;;;;;;;;;5004517;28;20054;-58
2020/12/04 01:38:52;;;;;;;6.38;1.92;;;;;;;;;;5014200;28;20037;-58
2020/12/04 01:41:23;;;;;;;3.65;1.80;;;;;;;;;;5019256;28;20093;-59
2020/12/04 01:43:49;;;;;;;9.27;3.58;;;;;;;;;;5012030;28;20061;-57
2020/12/04 01:46:15;;;;;;;6.82;2.40;;;;;;;;;;5024250;28;20049;-55
2020/12/04 01:48:44;;;;;;;6.45;2.67;;;;;;;;;;5019840;28;20053;-56
2020/12/04 01:51:11;;;;;;;6.07;2.47;;;;;;;;;;5022426;28;20041;-56
2020/12/04 01:53:38;;;;;;;7.13;2.80;;;;;;;;;;5018524;28;20048;-52
2020/12/04 01:56:04;;;;;;;6.57;2.72;;;;;;;;;;5022093;28;20127;-57
2020/12/04 01:58:30;;;;;;;6.75;2.97;;;;;;;;;;5016031;28;20037;-60
2020/12/04 02:00:56;;;;;;;7.13;2.53;;;;;;;;;;4981955;28;20070;-60
2020/12/04 02:03:22;;;;;;;3.85;1.67;;;;;;;;;;4983114;28;20054;-60
2020/12/04 02:05:54;;;;;;;7.82;3.25;;;;;;;;;;5023964;28;20030;-57
2020/12/04 02:08:24;;;;;;;6.38;2.88;;;;;;;;;;5034763;28;20060;-59
2020/12/04 02:10:52;;;;;;;2.05;1.13;;;;;;;;;;5004369;28;20053;-56
2020/12/04 02:13:19;;;;;;;8.32;2.63;;;;;;;;;;5002606;28;20046;-59
2020/12/04 02:15:45;;;;;;;5.72;2.20;;;;;;;;;;4998546;28;20123;-59
2020/12/04 02:18:11;;;;;;;3.88;1.98;;;;;;;;;;5003507;28;20046;-58
2020/12/04 02:20:38;;;;;;;4.72;1.88;;;;;;;;;;5014660;28;20069;-57
2020/12/04 02:23:04;;;;;;;6.85;2.15;;;;;;;;;;5021354;28;20100;-56
2020/12/04 02:25:30;;;;;;;3.83;1.25;;;;;;;;;;5018646;28;20042;-58
2020/12/04 02:27:56;;;;;;;2.58;1.33;;;;;;;;;;5022134;28;20053;-59
2020/12/04 02:30:28;;;;;;;1.17;0.45;;;;;;;;;;5009191;28;20066;-59
2020/12/04 02:32:54;;;;;;;3.50;1.38;;;;;;;;;;5004470;28;20085;-60
2020/12/04 02:35:20;;;;;;;2.95;1.45;;;;;;;;;;5007521;28;20057;-61
2020/12/04 02:37:47;;;;;;;5.63;1.95;;;;;;;;;;5038867;28;20081;-59
2020/12/04 02:40:13;;;;;;;4.90;2.10;;;;;;;;;;5033587;28;20116;-59
2020/12/04 02:42:41;;;;;;;5.68;2.03;;;;;;;;;;5006346;28;20050;-55
2020/12/04 02:45:07;;;;;;;5.05;1.65;;;;;;;;;;5019441;28;20056;-56
2020/12/04 02:47:33;;;;;;;5.63;2.30;;;;;;;;;;5021287;28;20648;-62
2020/12/04 02:49:59;;;;;;;4.40;1.77;;;;;;;;;;5019343;28;20037;-61
2020/12/04 02:52:25;;;;;;;1.70;0.85;;;;;;;;;;5002893;28;20042;-61
2020/12/04 02:54:52;;;;;;;3.72;1.60;;;;;;;;;;5002666;28;20034;-60
2020/12/04 02:57:18;;;;;;;4.95;2.05;;;;;;;;;;5000139;28;20046;-58
2020/12/04 02:59:45;;;;;;;6.40;2.75;;;;;;;;;;5000193;28;20042;-58
2020/12/04 03:02:11;;;;;;;4.85;2.00;;;;;;;;;;4997880;28;20058;-60
2020/12/04 03:04:37;;;;;;;5.93;2.30;;;;;;;;;;5001771;28;20038;-60
2020/12/04 03:07:03;;;;;;;4.55;1.70;;;;;;;;;;5015902;28;20087;-58
2020/12/04 03:09:29;;;;;;;3.33;1.40;;;;;;;;;;5002858;28;20038;-58
2020/12/04 03:11:57;;;;;;;5.60;1.88;;;;;;;;;;5006197;28;20059;-53
2020/12/04 03:14:23;;;;;;;3.70;1.55;;;;;;;;;;5002504;28;20042;-58
2020/12/04 03:16:49;;;;;;;5.55;1.48;;;;;;;;;;5007445;28;20045;-55
2020/12/04 03:19:15;;;;;;;4.13;1.85;;;;;;;;;;5022368;28;20104;-60
2020/12/04 03:21:41;;;;;;;4.15;1.67;;;;;;;;;;5020089;28;20045;-59
2020/12/04 03:24:08;;;;;;;4.38;1.80;;;;;;;;;;5038695;28;20081;-53
2020/12/04 03:26:34;;;;;;;4.65;2.00;;;;;;;;;;5011669;28;20062;-55
2020/12/04 03:29:01;;;;;;;5.85;2.80;;;;;;;;;;5038179;28;20081;-59
2020/12/04 03:31:27;;;;;;;4.53;1.73;;;;;;;;;;5037145;28;20045;-56
2020/12/04 03:33:53;;;;;;;6.40;2.25;;;;;;;;;;5001522;28;20050;-57
2020/12/04 03:36:19;;;;;;;2.83;1.27;;;;;;;;;;5002008;28;20049;-57
2020/12/04 03:38:45;;;;;;;5.50;2.33;;;;;;;;;;5014673;28;20070;-59
2020/12/04 03:41:11;;;;;;;5.10;1.85;;;;;;;;;;5017694;28;20048;-57
2020/12/04 03:43:40;;;;;;;3.03;1.20;;;;;;;;;;5011411;28;20034;-59
2020/12/04 03:46:07;;;;;;;4.13;1.65;;;;;;;;;;5021517;28;20046;-58
2020/12/04 03:48:33;;;;;;;3.55;1.48;;;;;;;;;;5017047;28;20044;-58
2020/12/04 03:50:59;;;;;;;3.83;1.60;;;;;;;;;;5021630;28;20049;-55
2020/12/04 03:53:25;;;;;;;4.75;1.77;;;;;;;;;;5017452;28;20046;-59
2020/12/04 03:55:51;;;;;;;2.33;1.27;;;;;;;;;;5019098;28;20041;-58
2020/12/04 03:58:17;;;;;;;3.03;1.38;;;;;;;;;;5004650;28;20061;-58
2020/12/04 04:00:45;;;;;;;4.20;1.70;;;;;;;;;;5002103;28;20049;-60
2020/12/04 04:03:12;;;;;;;3.22;1.23;;;;;;;;;;4997034;28;20068;-59
2020/12/04 04:05:38;;;;;;;4.78;2.00;;;;;;;;;;5001815;28;20052;-59
2020/12/04 04:08:04;;;;;;;7.38;2.03;;;;;;;;;;4998730;28;20077;-59
2020/12/04 04:10:31;;;;;;;4.65;2.03;;;;;;;;;;5021629;28;20056;-60
2020/12/04 04:12:57;;;;;;;3.17;1.73;;;;;;;;;;5038008;28;20081;-60
2020/12/04 04:15:23;;;;;;;4.32;1.55;;;;;;;;;;5015426;28;20082;-62
2020/12/04 04:17:49;;;;;;;4.72;1.58;;;;;;;;;;4999464;28;20059;-59
2020/12/04 04:20:16;;;;;;;3.88;1.60;;;;;;;;;;5012781;28;20064;-59
2020/12/04 04:22:42;;;;;;;3.10;1.35;;;;;;;;;;5021556;28;20104;-55
2020/12/04 04:25:11;;;;;;;4.40;1.98;;;;;;;;;;5017738;28;20085;-58
2020/12/04 04:27:38;;;;;;;4.47;1.92;;;;;;;;;;5035593;28;20092;-59
2020/12/04 04:30:04;;;;;;;4.35;1.95;;;;;;;;;;5017529;28;20033;-57
2020/12/04 04:32:30;;;;;;;3.40;1.45;;;;;;;;;;5037691;28;20126;-60
2020/12/04 04:34:56;;;;;;;2.92;1.40;;;;;;;;;;5024956;28;20049;-58
2020/12/04 04:37:23;;;;;;;1.40;0.80;;;;;;;;;;5001695;28;20050;-55
2020/12/04 04:39:50;;;;;;;4.63;1.48;;;;;;;;;;5002917;28;20124;-52
2020/12/04 04:42:17;;;;;;;4.18;1.70;;;;;;;;;;5008456;28;20042;-53
2020/12/04 04:44:44;;;;;;;4.03;1.80;;;;;;;;;;5000738;28;20454;-53
2020/12/04 04:47:10;;;;;;;2.70;1.17;;;;;;;;;;5001110;28;20038;-57
2020/12/04 04:49:38;;;;;;;2.60;1.17;;;;;;;;;;5000376;28;20042;-59
2020/12/04 04:52:06;;;;;;;3.35;1.38;;;;;;;;;;5020189;28;20038;-57
2020/12/04 04:54:35;;;;;;;3.60;1.52;;;;;;;;;;5021395;28;20042;-56
2020/12/04 04:57:02;;;;;;;3.40;1.40;;;;;;;;;;4999434;28;20038;-62
2020/12/04 04:59:28;;;;;;;2.53;1.27;;;;;;;;;;5001626;28;20053;-55
2020/12/04 05:01:54;;;;;;;3.58;1.15;;;;;;;;;;4999284;28;20050;-58
2020/12/04 05:04:20;;;;;;;2.63;1.30;;;;;;;;;;5001328;28;20052;-57
2020/12/04 05:06:46;;;;;;;2.13;1.17;;;;;;;;;;4997476;28;20038;-61
2020/12/04 05:09:16;;;;;;;4.47;1.05;;;;;;;;;;5003033;28;20067;-58
2020/12/04 05:11:55;;;;;;;5.63;1.35;;;;;;;;;;5015150;28;20115;-59
2020/12/04 05:14:23;;;;;;;3.60;1.65;;;;;;;;;;5017331;28;20123;-53
2020/12/04 05:16:50;;;;;;;3.25;1.52;;;;;;;;;;5007365;28;20123;-59
2020/12/04 05:19:27;;;;;;;3.50;1.58;;;;;;;;;;5001009;28;20030;-57
2020/12/04 05:21:54;;;;;;;2.00;0.95;;;;;;;;;;5004656;28;20121;-54
2020/12/04 05:24:25;;;;;;;4.20;1.40;;;;;;;;;;5036906;28;20050;-59
2020/12/04 05:26:51;;;;;;;3.35;1.80;;;;;;;;;;5016301;28;20052;-58
2020/12/04 05:29:18;;;;;;;5.15;1.40;;;;;;;;;;5020839;28;20050;-59
2020/12/04 05:31:45;;;;;;;2.78;1.13;;;;;;;;;;5029731;28;20030;-61
2020/12/04 05:34:21;;;;;;;2.63;1.20;;;;;;;;;;4999410;28;20042;-61
2020/12/04 05:36:48;;;;;;;2.90;1.10;;;;;;;;;;4999954;28;20054;-60
2020/12/04 05:39:14;;;;;;;2.63;1.38;;;;;;;;;;5035492;28;20108;-55
2020/12/04 05:41:45;;;;;;;1.73;0.90;;;;;;;;;;5011293;28;20066;-56
2020/12/04 05:44:11;;;;;;;3.53;1.40;;;;;;;;;;4980475;28;20090;-55
2020/12/04 05:46:38;;;;;;;3.10;1.10;;;;;;;;;;4981751;28;20059;-56
2020/12/04 05:49:07;;;;;;;2.65;1.15;;;;;;;;;;5015859;28;20037;-56
2020/12/04 05:51:33;;;;;;;;;;;;;;;;;;5000371;28;20042;-60
2020/12/04 05:53:59;;;;;;;2.08;0.90;;;;;;;;;;4999993;28;19933;-58
2020/12/04 05:56:25;;;;;;;2.60;0.98;;;;;;;;;;5002893;28;20057;-57
2020/12/04 05:58:54;;;;;;;2.63;0.82;;;;;;;;;;5011986;28;20061;-57
2020/12/04 06:01:21;;;;;;;3.10;1.40;;;;;;;;;;5030046;28;20061;-58
2020/12/04 06:03:50;;;;;;;4.75;1.40;;;;;;;;;;5034256;28;20049;-56
2020/12/04 06:06:23;;;;;;;2.85;1.23;;;;;;;;;;5023521;28;20053;-57
2020/12/04 06:08:49;;;;;;;4.53;1.00;;;;;;;;;;5018656;28;20156;-53
2020/12/04 06:11:16;;;;;;;2.85;1.20;;;;;;;;;;5005219;28;20052;-54
2020/12/04 06:13:44;;;;;;;4.15;1.50;;;;;;;;;;5009738;28;20042;-55
2020/12/04 06:16:11;;;;;;;4.07;1.60;;;;;;;;;;5025195;28;20052;-58
2020/12/04 06:18:37;;;;;;;1.58;1.00;;;;;;;;;;5013582;28;20123;-58
2020/12/04 06:21:04;;;;;;;3.22;1.30;;;;;;;;;;5002215;28;20038;-53
2020/12/04 06:23:30;;;;;;;3.28;1.13;;;;;;;;;;5001060;28;20101;-61
2020/12/04 06:26:11;;;;;;;2.38;0.98;;;;;;;;;;5022335;28;20113;-59
2020/12/04 06:28:39;;;;;;;2.83;1.20;;;;;;;;;;5034303;28;20211;-54
2020/12/04 06:31:09;;;;;;;2.13;1.10;;;;;;;;;;5002682;28;20042;-56
2020/12/04 06:33:45;;;;;;;3.28;1.35;;;;;;;;;;5003245;28;20057;-56
2020/12/04 06:36:13;;;;;;;4.13;1.20;;;;;;;;;;4984189;28;20098;-58
2020/12/04 06:38:40;;;;;;;3.45;1.30;;;;;;;;;;4981535;28;20053;-57
2020/12/04 06:41:26;;;;;;;2.33;1.20;;;;;;;;;;5012876;28;20058;-60
2020/12/04 06:43:55;;;;;;;2.72;0.98;;;;;;;;;;4996848;28;20069;-53
2020/12/04 06:46:20;;;;;;;;;;;;;;;;;;5002294;28;20065;-57
2020/12/04 06:49:04;;;;;;;2.28;1.00;;;;;;;;;;5021108;28;20004;-58
2020/12/04 06:51:31;;;;;;;3.15;1.20;;;;;;;;;;5016573;28;20042;-58
2020/12/04 06:53:57;;;;;;;2.83;1.25;;;;;;;;;;4999516;28;20052;-58
2020/12/04 06:56:23;;;;;;;2.97;1.20;;;;;;;;;;4998490;28;20042;-57
2020/12/04 06:58:49;;;;;;;2.47;1.00;;;;;;;;;;5001802;28;20049;-59
2020/12/04 07:01:18;;;;;;;2.55;1.15;;;;;;;;;;5012674;28;20049;-57
2020/12/04 07:03:45;;;;;;;4.07;1.10;;;;;;;;;;5039700;28;20034;-57
2020/12/04 07:06:11;;;;;;;2.08;1.10;;;;;;;;;;5008266;28;20053;-56
2020/12/04 07:08:38;;;;;;;1.83;0.90;;;;;;;;;;4994537;28;20038;-57
2020/12/04 07:11:06;;;;;;;2.20;1.10;;;;;;;;;;5007251;28;20057;-60
2020/12/04 07:13:37;;;;;;;1.92;1.00;;;;;;;;;;5020944;28;20070;-55
2020/12/04 07:16:04;;;;;;;2.35;0.93;;;;;;;;;;5025143;28;20033;-60
2020/12/04 07:18:30;;;;;;;1.63;0.77;;;;;;;;;;5014030;28;20122;-57
2020/12/04 07:20:56;;;;;;;4.95;0.93;;;;;;;;;;5024733;28;20091;-56
2020/12/04 07:23:22;;;;;;;1.63;0.90;;;;;;;;;;5021310;28;20185;-52
2020/12/04 07:25:49;;;;;;;1.52;0.80;;;;;;;;;;5009189;28;20076;-59
2020/12/04 07:28:15;;;;;;;1.73;0.95;;;;;;;;;;5012234;28;20037;-54
2020/12/04 07:30:42;;;;;;;3.70;0.70;;;;;;;;;;5021034;28;20042;-56
2020/12/04 07:33:08;;;;;;;3.22;0.90;;;;;;;;;;5018598;28;20041;-55
2020/12/04 07:35:34;;;;;;;2.15;1.02;;;;;;;;;;5022041;28;20131;-57
2020/12/04 07:38:06;;;;;;;4.28;1.23;;;;;;;;;;5036102;28;20038;-56
2020/12/04 07:40:33;;;;;;;4.68;1.20;;;;;;;;;;5023288;28;20077;-54
2020/12/04 07:43:03;;;;;;;2.92;1.17;;;;;;;;;;5029984;28;20048;-57
2020/12/04 07:45:29;;;;;;;1.85;0.90;;;;;;;;;;5023083;28;20037;-56
2020/12/04 07:47:55;;;;;;;1.35;0.82;;;;;;;;;;5018816;28;20033;-54
2020/12/04 07:50:23;;;;;;;1.67;0.73;;;;;;;;;;5038659;28;20050;-55
2020/12/04 07:52:51;;;;;;;2.25;0.93;;;;;;;;;;5023251;28;20060;-56
2020/12/04 07:55:19;;;;;;;1.87;0.87;;;;;;;;;;5002138;28;20062;-59
2020/12/04 07:57:45;;;;;;;;;;;;;;;;;;5005230;28;20294;-60
2020/12/04 08:00:14;;;;;;;1.17;0.70;;;;;;;;;;4997783;28;19933;-58
2020/12/04 08:02:40;;;;;;;1.17;0.68;;;;;;;;;;5001666;28;20033;-58
2020/12/04 08:05:06;;;;;;;1.10;0.60;;;;;;;;;;5019723;28;20064;-59
2020/12/04 08:07:33;;;;;;;2.22;1.10;;;;;;;;;;5015849;28;20049;-55
2020/12/04 08:10:00;;;;;;;2.85;0.82;;;;;;;;;;5001574;28;20045;-56
2020/12/04 08:12:28;;;;;;;3.03;0.82;;;;;;;;;;4998951;28;20049;-56
2020/12/04 08:14:55;;;;;;;1.27;0.70;;;;;;;;;;5019398;28;20053;-60
2020/12/04 08:17:23;;;;;;;1.70;0.70;;;;;;;;;;5037882;28;20049;-59
2020/12/04 08:19:51;;;;;;;0.80;0.60;;;;;;;;;;5016007;28;20127;-55
2020/12/04 08:22:26;;;;;;;1.33;0.70;;;;;;;;;;5021431;28;20093;-54
2020/12/04 08:25:02;;;;;;;0.98;0.60;;;;;;;;;;5031495;28;20057;-59
2020/12/04 08:27:29;;;;;;;0.30;0.28;;;;;;;;;;5037377;28;20041;-58
2020/12/04 08:30:05;;;;;;;0.55;0.35;;;;;;;;;;5030897;28;20053;-61
2020/12/04 08:32:32;;;;;;;1.85;0.52;;;;;;;;;;5037011;28;20042;-57
2020/12/04 08:35:06;;;;;;;2.60;0.90;;;;;;;;;;5032893;28;20055;-56
2020/12/04 08:37:33;;;;;;;3.50;0.60;;;;;;;;;;5014472;28;20029;-56
2020/12/04 08:39:59;;;;;;;1.40;0.82;;;;;;;;;;5006430;28;20038;-57
2020/12/04 08:42:31;;;;;;;1.02;0.50;;;;;;;;;;4987324;28;20058;-58
2020/12/04 08:45:00;;;;;;;2.42;0.68;;;;;;;;;;5014436;28;20180;-60
2020/12/04 08:47:30;;;;;;;1.05;0.40;;;;;;;;;;5037215;28;20034;-57
2020/12/04 08:50:04;;;;;;;0.60;0.40;;;;;;;;;;5010289;28;20082;-60
2020/12/04 08:52:48;;;;;;;1.10;0.32;;;;;;;;;;5000846;28;20048;-54
2020/12/04 08:55:14;;;;;;;0.88;0.30;;;;;;;;;;5008436;28;20042;-54
2020/12/04 08:57:41;;;;;;;0.47;0.40;;;;;;;;;;5038018;28;20127;-57
2020/12/04 09:00:09;;;;;;;1.38;0.32;;;;;;;;;;5027478;28;20038;-54
2020/12/04 09:02:37;;;;;;;1.45;0.20;;;;;;;;;;5001335;28;20049;-53
2020/12/04 09:05:04;;;;;;;0.25;0.25;;;;;;;;;;5001088;28;20040;-53
2020/12/04 09:07:31;;;;;;;0.95;0.30;;;;;;;;;;5023884;28;20168;-53
2020/12/04 09:09:57;;;;;;;1.23;0.50;;;;;;;;;;4994158;28;20074;-56
2020/12/04 09:12:24;;;;;;;0.55;0.40;;;;;;;;;;5003731;28;20041;-55
2020/12/04 09:14:50;;;;;;;3.35;0.50;;;;;;;;;;5021753;28;20046;-57
2020/12/04 09:17:16;;;;;;;0.32;0.32;;;;;;;;;;5016222;28;20053;-57
2020/12/04 09:19:44;;;;;;;0.20;0.20;;;;;;;;;;5005017;28;20041;-57
2020/12/04 09:22:11;;;;;;;0.43;0.22;;;;;;;;;;5002823;28;20041;-55
2020/12/04 09:24:37;;;;;;;0.32;0.28;;;;;;;;;;5006745;28;20041;-57
2020/12/04 09:27:03;;;;;;;0.20;0.20;;;;;;;;;;5019489;28;20124;-59
2020/12/04 09:29:29;;;;;;;0.20;0.20;;;;;;;;;;5006136;28;20161;-60
2020/12/04 09:31:56;;;;;;;0.63;0.30;;;;;;;;;;4992483;28;20038;-54
2020/12/04 09:34:22;;;;;;;0.20;0.20;;;;;;;;;;4985689;28;20061;-56
2020/12/04 09:36:51;;;;;;;2.47;0.30;;;;;;;;;;4997044;28;20037;-58
2020/12/04 09:39:18;;;;;;;1.50;0.40;;;;;;;;;;5022093;28;20061;-53
2020/12/04 09:41:44;;;;;;;0.40;0.25;;;;;;;;;;5008127;28;20066;-52
2020/12/04 09:44:10;;;;;;;0.40;0.40;;;;;;;;;;4986457;28;20092;-57
2020/12/04 09:46:37;;;;;;;0.60;0.30;;;;;;;;;;4985276;28;20037;-55
2020/12/04 09:49:03;;;;;;;0.40;0.30;;;;;;;;;;5022390;28;20056;-53
2020/12/04 09:51:29;;;;;;;0.47;0.40;;;;;;;;;;5001865;28;20081;-58
2020/12/04 09:53:55;;;;;;;0.80;0.47;;;;;;;;;;4977375;28;20070;-54
2020/12/04 09:56:23;;;;;;;0.20;0.20;;;;;;;;;;4987000;28;20049;-57
2020/12/04 09:58:49;;;;;;;0.52;0.22;;;;;;;;;;5000632;28;20050;-58
2020/12/04 10:01:16;;;;;;;0.25;0.20;;;;;;;;;;4987328;28;20042;-59
2020/12/04 10:03:43;;;;;;;2.63;0.60;;;;;;;;;;4999361;28;20135;-61
2020/12/04 10:06:09;;;;;;;0.30;0.20;;;;;;;;;;5005987;28;20041;-58
2020/12/04 10:08:35;;;;;;;1.23;0.40;;;;;;;;;;5002716;28;20030;-53
2020/12/04 10:11:03;;;;;;;1.27;0.40;;;;;;;;;;5021775;28;20057;-58
2020/12/04 10:13:30;;;;;;;0.40;0.30;;;;;;;;;;5002033;28;20042;-58
2020/12/04 10:16:01;;;;;;;0.32;0.30;;;;;;;;;;5006530;28;20042;-56
2020/12/04 10:18:28;;;;;;;0.30;0.30;;;;;;;;;;4995428;28;20074;-57
2020/12/04 10:20:57;;;;;;;1.70;0.47;;;;;;;;;;4988134;28;20114;-57
2020/12/04 10:23:23;;;;;;;0.82;0.50;;;;;;;;;;4989345;28;20131;-54
2020/12/04 10:25:49;;;;;;;0.35;0.35;;;;;;;;;;5023732;28;20045;-58
2020/12/04 10:28:15;;;;;;;2.80;0.60;;;;;;;;;;5019773;28;20086;-55
2020/12/04 10:30:48;;;;;;;0.88;0.38;;;;;;;;;;5024241;28;20038;-58
2020/12/04 10:33:14;;;;;;;1.45;0.40;;;;;;;;;;4998780;28;20053;-52
2020/12/04 10:35:42;;;;;;;0.40;0.40;;;;;;;;;;4986750;28;20058;-61
2020/12/04 10:38:10;;;;;;;0.32;0.32;;;;;;;;;;4984379;28;20140;-55
2020/12/04 10:40:37;;;;;;;0.93;0.40;;;;;;;;;;4983594;28;20078;-55
2020/12/04 10:43:03;;;;;;;1.33;0.50;;;;;;;;;;5023647;28;20057;-60
2020/12/04 10:45:29;;;;;;;1.48;0.50;;;;;;;;;;5003456;28;20052;-58
2020/12/04 10:47:58;;;;;;;0.63;0.47;;;;;;;;;;5020323;28;20049;-58
2020/12/04 10:50:24;;;;;;;0.30;0.30;;;;;;;;;;5012645;28;20030;-56
2020/12/04 10:52:50;;;;;;;1.45;0.50;;;;;;;;;;5038402;28;20084;-59
2020/12/04 10:55:16;;;;;;;1.02;0.93;;;;;;;;;;5026002;28;20092;-57
2020/12/04 10:57:42;;;;;;;3.88;0.47;;;;;;;;;;5006125;28;20059;-60
2020/12/04 11:00:08;;;;;;;0.73;0.40;;;;;;;;;;5007999;28;20070;-58
2020/12/04 11:02:37;;;;;;;0.35;0.30;;;;;;;;;;4986088;28;20081;-58
2020/12/04 11:07:48;;;;;;;0.10;0.10;;;;;;;;;;5020132;28;20108;-57
2020/12/04 11:10:15;;;;;;;0.32;0.32;;;;;;;;;;5018189;28;20045;-56
2020/12/04 11:12:41;;;;;;;0.30;0.30;;;;;;;;;;5021600;28;20060;-58
2020/12/04 11:15:08;;;;;;;0.47;0.38;;;;;;;;;;5001869;28;20045;-59
2020/12/04 11:17:34;;;;;;;0.45;0.30;;;;;;;;;;5020256;28;20055;-60
2020/12/04 11:20:00;;;;;;;3.13;0.30;;;;;;;;;;5002565;28;20054;-57
2020/12/04 11:22:27;;;;;;;1.05;0.47;;;;;;;;;;5005047;28;20038;-61
2020/12/04 11:24:53;;;;;;;0.30;0.30;;;;;;;;;;5005878;28;20061;-58
2020/12/04 11:27:19;;;;;;;3.38;0.95;;;;;;;;;;4983724;28;20116;-51
2020/12/04 11:29:46;;;;;;;1.00;0.55;;;;;;;;;;4985199;28;20053;-59
2020/12/04 11:32:12;;;;;;;0.73;0.32;;;;;;;;;;4998309;28;20069;-62
2020/12/04 11:34:38;;;;;;;1.05;0.40;;;;;;;;;;5005209;28;20048;-56
2020/12/04 11:37:04;;;;;;;2.67;0.45;;;;;;;;;;4999557;28;20045;-58
2020/12/04 11:39:31;;;;;;;0.40;0.40;;;;;;;;;;5021506;28;20102;-58
2020/12/04 11:41:56;;;;;;;0.40;0.32;;;;;;;;;;5016941;28;20049;-60
2020/12/04 11:44:23;;;;;;;0.95;0.20;;;;;;;;;;5004888;28;20049;-54
2020/12/04 11:46:51;;;;;;;0.73;0.35;;;;;;;;;;4994393;28;20077;-56
2020/12/04 11:49:17;;;;;;;0.47;0.32;;;;;;;;;;4994577;28;20093;-58
2020/12/04 11:51:44;;;;;;;0.60;0.35;;;;;;;;;;5001462;28;20049;-54
2020/12/04 11:54:10;;;;;;;1.10;0.30;;;;;;;;;;5021352;28;20049;-51
2020/12/04 11:56:37;;;;;;;2.88;0.43;;;;;;;;;;5018660;28;20041;-53
2020/12/04 11:59:03;;;;;;;1.00;0.50;;;;;;;;;;5005496;28;20111;-56
2020/12/04 12:01:32;;;;;;;0.45;0.30;;;;;;;;;;5019972;28;20052;-52
2020/12/04 12:03:58;;;;;;;0.40;0.22;;;;;;;;;;4999843;28;20054;-55
2020/12/04 12:06:24;;;;;;;0.60;0.40;;;;;;;;;;4998013;28;20046;-56
2020/12/04 12:08:50;;;;;;;0.73;0.30;;;;;;;;;;4998283;28;20054;-57
2020/12/04 12:11:16;;;;;;;1.20;0.50;;;;;;;;;;4982636;28;20075;-57
2020/12/04 12:13:43;;;;;;;1.30;0.43;;;;;;;;;;4978177;28;20101;-59
2020/12/04 12:16:09;;;;;;;1.17;0.50;;;;;;;;;;4983423;28;20054;-58
2020/12/04 12:18:35;;;;;;;1.52;0.60;;;;;;;;;;4989741;28;20074;-58
2020/12/04 12:21:02;;;;;;;0.70;0.40;;;;;;;;;;5002131;28;20042;-58
2020/12/04 12:23:28;;;;;;;1.52;0.50;;;;;;;;;;4998057;28;20058;-61
2020/12/04 12:25:54;;;;;;;4.80;0.45;;;;;;;;;;5000773;28;20034;-57
2020/12/04 12:28:20;;;;;;;1.67;0.50;;;;;;;;;;4991818;28;20039;-60
2020/12/04 12:30:47;;;;;;;0.65;0.30;;;;;;;;;;4982413;28;20031;-60
2020/12/04 12:33:13;;;;;;;0.85;0.50;;;;;;;;;;4980921;28;20106;-56
2020/12/04 12:35:39;;;;;;;0.68;0.40;;;;;;;;;;5000971;28;20042;-58
2020/12/04 12:38:05;;;;;;;2.40;0.50;;;;;;;;;;4994950;28;20061;-58
2020/12/04 12:40:32;;;;;;;3.47;0.55;;;;;;;;;;4982345;28;20046;-57
2020/12/04 12:42:58;;;;;;;2.58;0.80;;;;;;;;;;5000630;28;20042;-57
2020/12/04 12:45:24;;;;;;;1.52;0.50;;;;;;;;;;4995235;28;20061;-59
2020/12/04 12:47:53;;;;;;;0.68;0.40;;;;;;;;;;5000553;28;20060;-55
2020/12/04 12:50:21;;;;;;;0.50;0.50;;;;;;;;;;4997194;28;20132;-57
2020/12/04 12:52:48;;;;;;;0.73;0.45;;;;;;;;;;5001135;28;20042;-60
2020/12/04 12:55:14;;;;;;;1.95;0.50;;;;;;;;;;4997369;28;20038;-59
2020/12/04 12:57:40;;;;;;;0.30;0.30;;;;;;;;;;5000213;28;20034;-56
2020/12/04 13:00:07;;;;;;;0.40;0.40;;;;;;;;;;4986139;28;20038;-59
2020/12/04 13:02:33;;;;;;;0.88;0.47;;;;;;;;;;4981492;28;20058;-59
2020/12/04 13:05:00;;;;;;;2.60;0.60;;;;;;;;;;4989249;28;20053;-57
2020/12/04 13:07:26;;;;;;;1.25;0.40;;;;;;;;;;5020135;28;20033;-57
2020/12/04 13:09:52;;;;;;;5.28;0.47;;;;;;;;;;5011085;28;20042;-56
2020/12/04 13:12:18;;;;;;;0.75;0.47;;;;;;;;;;4984153;28;20045;-57
2020/12/04 13:14:44;;;;;;;0.65;0.40;;;;;;;;;;4982022;28;20050;-55
2020/12/04 13:17:10;;;;;;;1.90;0.77;;;;;;;;;;4974311;28;20042;-56
2020/12/04 13:19:37;;;;;;;0.88;0.40;;;;;;;;;;4982117;28;20181;-60
2020/12/04 13:22:05;;;;;;;1.48;0.40;;;;;;;;;;5020307;28;20042;-58
2020/12/04 13:24:32;;;;;;;0.77;0.30;;;;;;;;;;5003233;28;20052;-52
2020/12/04 13:27:00;;;;;;;1.15;0.50;;;;;;;;;;5006468;28;20120;-57
2020/12/04 13:29:26;;;;;;;0.85;0.45;;;;;;;;;;5012534;28;20044;-56
2020/12/04 13:31:53;;;;;;;0.60;0.40;;;;;;;;;;5001903;28;20038;-56
2020/12/04 13:34:20;;;;;;;0.50;0.35;;;;;;;;;;4993066;28;20039;-56
2020/12/04 13:36:46;;;;;;;5.47;0.60;;;;;;;;;;4981590;28;20057;-58
2020/12/04 13:39:13;;;;;;;0.98;0.30;;;;;;;;;;4984327;28;20038;-55
2020/12/04 13:41:39;;;;;;;0.80;0.38;;;;;;;;;;4988083;28;20049;-59
2020/12/04 13:44:05;;;;;;;1.52;0.50;;;;;;;;;;5004104;28;20042;-55
2020/12/04 13:46:31;;;;;;;1.75;0.50;;;;;;;;;;4988406;28;20053;-57
2020/12/04 13:48:58;;;;;;;1.05;0.35;;;;;;;;;;4982502;28;20133;-56
2020/12/04 13:51:25;;;;;;;0.75;0.40;;;;;;;;;;4979556;28;20108;-55
2020/12/04 13:53:51;;;;;;;0.52;0.30;;;;;;;;;;4985771;28;20037;-54
2020/12/04 13:56:18;;;;;;;1.00;0.30;;;;;;;;;;5014994;28;20041;-57
2020/12/04 13:58:44;;;;;;;4.50;1.00;;;;;;;;;;5001462;28;20052;-59
2020/12/04 14:01:10;;;;;;;0.40;0.40;;;;;;;;;;4998522;28;20041;-57
2020/12/04 14:03:36;;;;;;;0.60;0.40;;;;;;;;;;4982470;28;20112;-56
2020/12/04 14:06:02;;;;;;;0.68;0.25;;;;;;;;;;4982244;28;20074;-57
2020/12/04 14:08:28;;;;;;;1.02;0.30;;;;;;;;;;5001350;28;20070;-59
2020/12/04 14:10:54;;;;;;;0.20;0.20;;;;;;;;;;4988403;28;20030;-57
2020/12/04 14:13:21;;;;;;;1.25;0.22;;;;;;;;;;4981661;28;20065;-61
2020/12/04 14:15:47;;;;;;;1.10;0.25;;;;;;;;;;4986831;28;20061;-56
2020/12/04 14:18:13;;;;;;;0.43;0.40;;;;;;;;;;4992801;28;20030;-60
2020/12/04 14:20:40;;;;;;;0.43;0.40;;;;;;;;;;5005362;28;20049;-58
2020/12/04 14:23:06;;;;;;;2.20;0.47;;;;;;;;;;5016900;28;20086;-56
2020/12/04 14:25:32;;;;;;;2.05;0.32;;;;;;;;;;5006741;28;20147;-52
2020/12/04 14:27:58;;;;;;;0.80;0.30;;;;;;;;;;5020355;28;20045;-60
2020/12/04 14:30:25;;;;;;;0.50;0.40;;;;;;;;;;5023437;28;20045;-59
2020/12/04 14:32:51;;;;;;;0.65;0.30;;;;;;;;;;5018546;28;20034;-59
2020/12/04 14:35:17;;;;;;;1.83;0.47;;;;;;;;;;5022520;28;20074;-56
2020/12/04 14:37:43;;;;;;;2.30;0.77;;;;;;;;;;5015700;28;20034;-61
2020/12/04 14:40:28;;;;;;;3.05;1.05;;;;;;;;;;4986405;28;20049;-57
2020/12/04 14:42:55;;;;;;;0.20;0.20;;;;;;;;;;5014336;28;20060;-59
2020/12/04 14:45:21;;;;;;;2.45;0.82;;;;;;;;;;4986680;28;20061;-60